Airport ICAO


14:34 UTC

8°C

Rain


An affordable passengers' Moving Map for your aircraft. Made for the iPad and the iPhone
More information here

LFAT Paris Plage


Le Tourquet FRANCE   VFR


METAR LFAT 241430Z AUTO 35006KT 340V040 9999 RA FEW019/// BKN026/// BKN036/// ///TCU 08/07 Q1011 TEMPO 3000 SHRA BKN003 BKN015TCU 0h04min

TAF LFAT 241400Z 2415/2424 16005KT 9999 BKN030 TEMPO 2415/2421 3000 SHRA BKN003 BKN015TCU 0h34min





NOTAMS

OPEN